Thunder radar more information blitzortung!


avis per Pluja more information rain snow radar


Visita la nostra xarxa de llocs de meteo:

Template documentation
and downloads

And another site



Rain From: 18-11-2018 11:00 Until: 20:59 warning for: Rain Level: Yellow info button

Pagina Historial Weather Underground text

Diari Resum Desembre 15, 2017 Unitats:  Mètric    Imperial   Tant
« Previous Dia
SegĂźent Dia »
Diari Setmana Mensual Anual Personalitzada
  Maxima: Minima: Media:
Temperatura: -17.8 °C -16 °C -12.1 °C
Punt de rosada: -17.8 °C -19.7 °C -17.5 °C
Humitat: Humidity % 41 % 51 %
Wind Speed: 0 km/h 0 km/h 12.6 km/h
RĂ fegues de vent: 0 km/h - -
Vent:- - SW
Pression baro: 0 hPa 33992.1 hPa -
Precipitacions: 0 mm    
Historical Graphs
 
 
Dades de taula per Desembre 15, 2017
Temps Temperatura Punt de rosada Pression baro Vent Wind Speed RĂ fegues de vent Humitat Rainfall Rate (Hourly)
-17.8 °C -17.8 °C 0 hPa Calm     Humidity % 0 mm
00:05 -13.1 °C -15.2 °C 34029.3 hPa WSW 2.6 km/h 7.7 km/h 77 % 0 mm
00:15 -12.9 °C -15.1 °C 34029.3 hPa WSW 2.6 km/h 7.7 km/h 77 % 0 mm
00:25 -12.7 °C -14.8 °C 33992.1 hPa West 5.1 km/h 7.7 km/h 77 % 0 mm
00:55 -12.1 °C -14.2 °C 33992.1 hPa West 7.7 km/h 10.3 km/h 77 % 0 mm
01:05 -11.9 °C -14.1 °C 33992.1 hPa WSW 7.7 km/h 12.9 km/h 77 % 0 mm
01:15 -11.9 °C -14.1 °C 33992.1 hPa West 5.1 km/h 7.7 km/h 76 % 0 mm
01:25 -11.8 °C -14.2 °C 34029.3 hPa West 7.7 km/h 7.7 km/h 75 % 0 mm
01:35 -11.8 °C -14.2 °C 34029.3 hPa WSW 2.6 km/h 7.7 km/h 75 % 0 mm
01:45 -12.1 °C -14.5 °C 34029.3 hPa West 5.1 km/h 5.1 km/h 74 % 0 mm
01:55 -12.1 °C -14.6 °C 33992.1 hPa West 7.7 km/h 12.9 km/h 74 % 0 mm
02:05 -12.1 °C -14.7 °C 34029.3 hPa West 7.7 km/h 7.7 km/h 73 % 0 mm
02:15 -12.2 °C -14.7 °C 34029.3 hPa WSW 12.9 km/h 18.2 km/h 73 % 0 mm
02:25 -12.2 °C -14.8 °C 33992.1 hPa WSW 2.6 km/h 7.7 km/h 72 % 0 mm
02:35 -12.2 °C -14.9 °C 33992.1 hPa WSW 5.1 km/h 12.9 km/h 71 % 0 mm
02:45 -12.1 °C -14.9 °C 33992.1 hPa WSW 7.7 km/h 15.6 km/h 70 % 0 mm
02:55 -11.9 °C -15.1 °C 33992.1 hPa WSW 12.9 km/h 25.9 km/h 68 % 0 mm
03:05 -11.9 °C -15.2 °C 34029.3 hPa WSW 7.7 km/h 10.3 km/h 67 % 0 mm
03:15 -11.7 °C -15.1 °C 34029.3 hPa West 7.7 km/h 12.9 km/h 66 % 0 mm
03:25 -11.5 °C -15.2 °C 34029.3 hPa West 7.7 km/h 15.6 km/h 64 % 0 mm
03:35 -11.3 °C -15.1 °C 34029.3 hPa West 7.7 km/h 7.7 km/h 63 % 0 mm
03:45 -11.3 °C -15.2 °C 34029.3 hPa NW 12.9 km/h 25.9 km/h 62 % 0 mm
03:55 -11.1 °C -15.4 °C 33992.1 hPa WNW 12.9 km/h 20.8 km/h 59 % 0 mm
04:05 -11 °C -15.9 °C 33992.1 hPa West 18.2 km/h 38.8 km/h 55 % 0 mm
04:15 -11 °C -16.2 °C 33992.1 hPa West 31.1 km/h 31.1 km/h 53 % 0 mm
04:25 -11 °C -16.2 °C 34029.3 hPa West 31.1 km/h 31.1 km/h 53 % 0 mm
04:35 -10.9 °C -16.1 °C 34029.3 hPa WSW 15.6 km/h 23.3 km/h 53 % 0 mm
04:45 -10.9 °C -16.2 °C 34029.3 hPa WSW 23.3 km/h 25.9 km/h 52 % 0 mm
10:51 -10.8 °C -16.1 °C 34063.2 hPa WNW 20.9 km/h 20.9 km/h 52 % 0 mm
10:54 -10.8 °C -16.1 °C 34063.2 hPa WSW 35.7 km/h 35.7 km/h 52 % 0 mm
10:59 -10.7 °C -16 °C 34063.2 hPa WNW 15 km/h 15 km/h 52 % 0 mm
11:04 -10.5 °C -15.9 °C 34063.2 hPa North 12.7 km/h 12.7 km/h 52 % 0 mm
11:09 -10.6 °C -15.9 °C 34063.2 hPa West 15 km/h 15 km/h 52 % 0 mm
11:14 -10.5 °C -15.9 °C 34063.2 hPa North 15 km/h 15 km/h 52 % 0 mm
11:19 -10.5 °C -15.9 °C 34063.2 hPa SW 9.8 km/h 9.8 km/h 52 % 0 mm
11:24 -10.5 °C -15.9 °C 34063.2 hPa SW 11.9 km/h 12.2 km/h 52 % 0 mm
11:29 -10.4 °C -15.8 °C 34063.2 hPa SSE 15 km/h 15 km/h 52 % 0 mm
11:34 -10.4 °C -15.7 °C 34063.2 hPa SSW 11.9 km/h 11.9 km/h 52 % 0 mm
11:39 -10.3 °C -15.7 °C 34063.2 hPa WSW 19.6 km/h 19.6 km/h 52 % 0 mm
11:44 -10.5 °C -15.9 °C 34097 hPa SW 15 km/h 15 km/h 52 % 0 mm
11:49 -10.5 °C -15.9 °C 34097 hPa West 11.9 km/h 11.9 km/h 52 % 0 mm
11:54 -10.4 °C -15.8 °C 34097 hPa West 15.6 km/h 15.6 km/h 52 % 0 mm
11:59 -10.6 °C -16.1 °C 34063.2 hPa NW 71.5 km/h 71.5 km/h 51 % 0 mm
12:05 -10.6 °C -15.9 °C 34063.2 hPa NW 11.9 km/h 11.9 km/h 52 % 0 mm
12:10 -10.5 °C -16 °C 34063.2 hPa WSW 23.8 km/h 23.8 km/h 51 % 0 mm
12:15 -10.4 °C -15.8 °C 34063.2 hPa West 19.6 km/h 19.6 km/h 52 % 0 mm
12:20 -10.5 °C -16 °C 34063.2 hPa WNW 38.8 km/h 38.8 km/h 51 % 0 mm
12:25 -10.5 °C -16 °C 34063.2 hPa NW 15 km/h 15.3 km/h 51 % 0 mm
12:30 -10.4 °C -15.9 °C 34063.2 hPa West 27.7 km/h 27.7 km/h 51 % 0 mm
12:35 -10.5 °C -16 °C 34063.2 hPa NW 15 km/h 15 km/h 51 % 0 mm
12:40 -10.4 °C -15.9 °C 34063.2 hPa WNW 23.8 km/h 23.8 km/h 51 % 0 mm
12:45 -10.3 °C -15.8 °C 34063.2 hPa West 15 km/h 16.1 km/h 51 % 0 mm
12:50 -10 °C -15.6 °C 34063.2 hPa West 26.9 km/h 26.9 km/h 51 % 0 mm
12:55 -10 °C -15.6 °C 34063.2 hPa West 15.3 km/h 15.3 km/h 51 % 0 mm
13:00 -10.2 °C -15.7 °C 34029.3 hPa South 9 km/h 9.3 km/h 51 % 0 mm
13:05 -10.3 °C -15.8 °C 34029.3 hPa East 9 km/h 9 km/h 51 % 0 mm
13:10 -10.2 °C -15.7 °C 34029.3 hPa WNW 15.3 km/h 15.3 km/h 51 % 0 mm
13:15 -10.1 °C -15.7 °C 34063.2 hPa SSW 11.9 km/h 11.9 km/h 51 % 0 mm
13:20 -9.8 °C -15.4 °C 34063.2 hPa West 26.9 km/h 26.9 km/h 51 % 0 mm
13:25 -9.9 °C -15.7 °C 34063.2 hPa WNW 26.9 km/h 26.9 km/h 50 % 0 mm
13:30 -9.8 °C -15.6 °C 34029.3 hPa West 20.9 km/h 20.9 km/h 50 % 0 mm
13:35 -9.9 °C -15.8 °C 34029.3 hPa WSW 15.6 km/h 15.6 km/h 49 % 0 mm
13:40 -9.9 °C -15.8 °C 34029.3 hPa WSW 15 km/h 15 km/h 49 % 0 mm
13:45 -9.9 °C -15.8 °C 34029.3 hPa WSW 11.9 km/h 11.9 km/h 49 % 0 mm
13:50 -9.9 °C -16 °C 34029.3 hPa WSW 35.7 km/h 35.7 km/h 48 % 0 mm
13:55 -10.1 °C -16.2 °C 34029.3 hPa WNW 23.8 km/h 23.8 km/h 48 % 0 mm
14:00 -10.1 °C -16.1 °C 34029.3 hPa WSW 16.6 km/h 16.6 km/h 48 % 0 mm
14:05 -9.9 °C -15.9 °C 34029.3 hPa SW 15 km/h 15 km/h 48 % 0 mm
14:10 -10 °C -16 °C 34029.3 hPa WNW 15 km/h 15 km/h 48 % 0 mm
14:15 -10.2 °C -16.4 °C 34063.2 hPa WSW 20.9 km/h 20.9 km/h 47 % 0 mm
14:20 -10.2 °C -16.4 °C 34063.2 hPa WSW 12.7 km/h 12.7 km/h 47 % 0 mm
14:25 -10.3 °C -16.4 °C 34063.2 hPa WSW 15 km/h 15 km/h 47 % 0 mm
14:30 -10.1 °C -16.3 °C 34063.2 hPa SW 9 km/h 9 km/h 47 % 0 mm
14:35 -9.9 °C -15.9 °C 34063.2 hPa SW 15 km/h 15 km/h 48 % 0 mm
14:40 -9.9 °C -16.2 °C 34063.2 hPa SW 26.9 km/h 26.9 km/h 47 % 0 mm
14:45 -10 °C -16.2 °C 34063.2 hPa WNW 17.9 km/h 17.9 km/h 47 % 0 mm
14:50 -10 °C -16.2 °C 34063.2 hPa West 11.9 km/h 11.9 km/h 47 % 0 mm
14:55 -10.1 °C -16.4 °C 34063.2 hPa SSW 38.8 km/h 38.8 km/h 46 % 0 mm
15:00 -9.9 °C -16.3 °C 34063.2 hPa WNW 15 km/h 15 km/h 46 % 0 mm
15:05 -9.9 °C -16.5 °C 34063.2 hPa WSW 20.9 km/h 20.9 km/h 45 % 0 mm
15:10 -9.9 °C -16.6 °C 34063.2 hPa West 15 km/h 15.3 km/h 44 % 0 mm
15:15 -9.9 °C -16.6 °C 34063.2 hPa West 15 km/h 15 km/h 44 % 0 mm
15:20 -9.8 °C -16.7 °C 34063.2 hPa SW 20.9 km/h 20.9 km/h 43 % 0 mm
15:25 -9.8 °C -16.7 °C 34063.2 hPa WSW 27.2 km/h 27.2 km/h 43 % 0 mm
15:30 -9.9 °C -17 °C 34063.2 hPa WSW 20.9 km/h 20.9 km/h 42 % 0 mm
15:35 -9.9 °C -17 °C 34063.2 hPa West 20.9 km/h 20.9 km/h 42 % 0 mm
15:40 -10 °C -17.3 °C 34063.2 hPa West 17.9 km/h 17.9 km/h 41 % 0 mm
15:45 -10 °C -17.3 °C 34063.2 hPa WNW 11.9 km/h 11.9 km/h 41 % 0 mm
15:50 -10.1 °C -17.3 °C 34063.2 hPa West 15 km/h 15 km/h 41 % 0 mm
15:56 -10.1 °C -17.1 °C 34063.2 hPa WNW 9.8 km/h 10.3 km/h 42 % 0 mm
16:01 -10.2 °C -17.3 °C 34097 hPa WSW 15 km/h 15 km/h 42 % 0 mm
16:06 -10.2 °C -17.3 °C 34097 hPa WSW 12.7 km/h 12.7 km/h 42 % 0 mm
16:11 -10.3 °C -17.4 °C 34097 hPa West 15 km/h 15 km/h 42 % 0 mm
16:16 -10.3 °C -17.4 °C 34097 hPa SW 15 km/h 15 km/h 42 % 0 mm
16:21 -10.4 °C -17.4 °C 34097 hPa West 17.9 km/h 17.9 km/h 42 % 0 mm
16:31 -10.6 °C -17.6 °C 34097 hPa SSW 15 km/h 15 km/h 42 % 0 mm
16:36 -10.6 °C -17.4 °C 34097 hPa WSW 16.6 km/h 16.6 km/h 43 % 0 mm
16:41 -10.7 °C -17.6 °C 34097 hPa WSW 6 km/h 6 km/h 43 % 0 mm
16:46 -10.7 °C -17.5 °C 34097 hPa SW 9 km/h 9 km/h 43 % 0 mm
16:51 -10.7 °C -17.4 °C 34097 hPa WSW 10.3 km/h 10.3 km/h 44 % 0 mm
16:56 -10.8 °C -17.4 °C 34097 hPa SSW 9 km/h 9 km/h 44 % 0 mm
16:57 -10.9 °C -17.6 °C 34097 hPa West 8 km/h 8 km/h 44 % 0 mm
17:02 -10.9 °C -17.6 °C 34097 hPa SW 5.1 km/h   44 % 0 mm
17:07 -11.1 °C -17.7 °C 34097 hPa West 11.9 km/h 11.9 km/h 44 % 0 mm
17:12 -11.2 °C -17.8 °C 34130.9 hPa SW 9 km/h 9 km/h 44 % 0 mm
17:17 -11.3 °C -17.9 °C 34130.9 hPa WSW 17.9 km/h 17.9 km/h 44 % 0 mm
17:22 -11.4 °C -17.9 °C 34130.9 hPa SW 9 km/h 9 km/h 44 % 0 mm
17:28 -11.5 °C -18.1 °C 34130.9 hPa SW 15.3 km/h 15.3 km/h 44 % 0 mm
17:33 -11.6 °C -18.1 °C 34130.9 hPa West 11.9 km/h 11.9 km/h 44 % 0 mm
17:38 -11.7 °C -18.2 °C 34130.9 hPa West 15 km/h 15.3 km/h 44 % 0 mm
17:43 -11.7 °C -18.1 °C 34130.9 hPa SW 11.9 km/h 11.9 km/h 45 % 0 mm
17:48 -11.8 °C -18.2 °C 34130.9 hPa West 12.2 km/h 12.2 km/h 45 % 0 mm
17:53 -11.8 °C -18.2 °C 34130.9 hPa WSW 15 km/h 15 km/h 45 % 0 mm
17:58 -11.8 °C -18.2 °C 34130.9 hPa West 11.9 km/h 11.9 km/h 45 % 0 mm
18:03 -11.8 °C -18.2 °C 34130.9 hPa West 15 km/h 15 km/h 45 % 0 mm
18:08 -11.9 °C -18.3 °C 34130.9 hPa WSW 6 km/h 6.8 km/h 45 % 0 mm
18:13 -12.1 °C -18.4 °C 34130.9 hPa SSW 6 km/h 6 km/h 45 % 0 mm
18:15 -14.1 °C -19.1 °C 34198.6 hPa West 5.1 km/h 5.1 km/h 53 % 0 mm
18:18 -12.2 °C -18.6 °C 34130.9 hPa WSW 6 km/h 6 km/h 45 % 0 mm
18:23 -12.3 °C -18.6 °C 34130.9 hPa SW 9 km/h 9 km/h 45 % 0 mm
18:25 -14.2 °C -19 °C 34164.7 hPa WNW 7.7 km/h 7.7 km/h 54 % 0 mm
18:28 -12.3 °C -18.7 °C 34130.9 hPa SSW 9 km/h 9 km/h 45 % 0 mm
18:33 -12.4 °C -18.7 °C 34130.9 hPa WSW 11.9 km/h 11.9 km/h 45 % 0 mm
18:35 -14.2 °C -19 °C 34198.6 hPa West 2.6 km/h 7.7 km/h 54 % 0 mm
18:38 -12.4 °C -18.8 °C 34130.9 hPa SSW 11.9 km/h 11.9 km/h 45 % 0 mm
18:43 -12.5 °C -18.8 °C 34130.9 hPa SSW 11.9 km/h 11.9 km/h 45 % 0 mm
18:45 -14.3 °C -18.8 °C 34198.6 hPa SSE 7.7 km/h 10.3 km/h 56 % 0 mm
18:48 -12.5 °C -18.8 °C 34130.9 hPa WSW 15 km/h 15 km/h 45 % 0 mm
18:53 -12.6 °C -18.8 °C 34130.9 hPa WSW 9 km/h 9 km/h 45 % 0 mm
18:58 -12.6 °C -18.8 °C 34130.9 hPa WSW 9 km/h 9 km/h 45 % 0 mm
19:03 -12.5 °C -18.8 °C 34130.9 hPa West 15.3 km/h 15.3 km/h 45 % 0 mm
19:05 -14.4 °C -19.1 °C 34198.6 hPa SW 2.6 km/h 7.7 km/h 55 % 0 mm
19:08 -12.5 °C -18.8 °C 34130.9 hPa WSW 17.9 km/h 17.9 km/h 45 % 0 mm
19:13 -12.5 °C -18.8 °C 34130.9 hPa WSW 9 km/h 9 km/h 45 % 0 mm
19:15 -14.6 °C -19.1 °C 34198.6 hPa WSW 2.6 km/h 5.1 km/h 56 % 0 mm
19:18 -12.6 °C -18.8 °C 34130.9 hPa WSW 10.3 km/h 10.3 km/h 45 % 0 mm
19:23 -12.6 °C -18.8 °C 34130.9 hPa WSW 15 km/h 15 km/h 45 % 0 mm
19:25 -14.6 °C -19.1 °C 34198.6 hPa SSW 2.6 km/h 5.1 km/h 56 % 0 mm
19:28 -12.5 °C -18.8 °C 34130.9 hPa WSW 20.9 km/h 20.9 km/h 45 % 0 mm
19:33 -12.6 °C -18.8 °C 34130.9 hPa West 15 km/h 15 km/h 45 % 0 mm
19:35 -14.7 °C -19.2 °C 34198.6 hPa WSW 5.1 km/h 7.7 km/h 56 % 0 mm
19:38 -12.6 °C -18.8 °C 34130.9 hPa WSW 17.9 km/h 17.9 km/h 45 % 0 mm
19:43 -12.6 °C -18.9 °C 34130.9 hPa West 11.9 km/h 11.9 km/h 45 % 0 mm
19:45 -14.4 °C -18.9 °C 34198.6 hPa Calm   7.7 km/h 56 % 0 mm
19:48 -12.6 °C -18.9 °C 34130.9 hPa WSW 15 km/h 15 km/h 45 % 0 mm
19:53 -12.7 °C -18.9 °C 34130.9 hPa WSW 17.9 km/h 17.9 km/h 45 % 0 mm
19:55 -14.6 °C -19.1 °C 34164.7 hPa West 5.1 km/h 5.1 km/h 56 % 0 mm
19:58 -12.7 °C -18.9 °C 34130.9 hPa WSW 11.9 km/h 11.9 km/h 45 % 0 mm
20:03 -12.7 °C -19 °C 34130.9 hPa WNW 15 km/h 16.1 km/h 45 % 0 mm
20:05 -14.6 °C -19.1 °C 34198.6 hPa West 2.6 km/h 7.7 km/h 56 % 0 mm
20:08 -12.7 °C -19 °C 34130.9 hPa NNE 20.9 km/h 20.9 km/h 45 % 0 mm
20:13 -12.8 °C -18.9 °C 34164.7 hPa WSW 15 km/h 15 km/h 46 % 0 mm
20:15 -14.6 °C -19.1 °C 34198.6 hPa NNW 5.1 km/h 7.7 km/h 56 % 0 mm
20:18 -12.8 °C -18.9 °C 34164.7 hPa WSW 9 km/h 9 km/h 46 % 0 mm
20:24 -12.9 °C -19 °C 34164.7 hPa WNW 11.9 km/h 11.9 km/h 46 % 0 mm
20:25 -14.6 °C -19.1 °C 34164.7 hPa NE 2.6 km/h 12.9 km/h 56 % 0 mm
20:29 -12.9 °C -19.1 °C 34164.7 hPa WNW 12.7 km/h 12.7 km/h 46 % 0 mm
20:34 -12.9 °C -19.1 °C 34164.7 hPa SSW 6 km/h 6 km/h 46 % 0 mm
20:35 -13 °C -19.1 °C 34164.7 hPa WSW 9.8 km/h 9.8 km/h 46 % 0 mm
20:40 -13.1 °C -19.2 °C 34164.7 hPa SW 15 km/h 15 km/h 46 % 0 mm
20:45 -13.1 °C -19.2 °C 34130.9 hPa WSW 11.9 km/h 11.9 km/h 46 % 0 mm
20:50 -13.2 °C -19.3 °C 34130.9 hPa ENE 9 km/h 9 km/h 46 % 0 mm
20:55 -13.2 °C -19.1 °C 34130.9 hPa ESE 15.3 km/h 15.3 km/h 47 % 0 mm
21:00 -13.2 °C -19.1 °C 34130.9 hPa ESE 11.9 km/h 11.9 km/h 47 % 0 mm
21:05 -13.2 °C -19.1 °C 34130.9 hPa ENE 9.8 km/h 9.8 km/h 47 % 0 mm
21:10 -13.3 °C -19.3 °C 34130.9 hPa NE 6 km/h 6 km/h 47 % 0 mm
21:15 -13.2 °C -19.1 °C 34164.7 hPa ESE 15 km/h 15 km/h 47 % 0 mm
21:20 -13.3 °C -19.3 °C 34164.7 hPa Calm     47 % 0 mm
21:22 -13.3 °C -19.3 °C 34164.7 hPa East 8 km/h 8 km/h 47 % 0 mm
21:27 -13.3 °C -19.3 °C 34164.7 hPa WNW 6 km/h 6 km/h 47 % 0 mm
21:32 -13.4 °C -19.3 °C 34164.7 hPa NW 7.6 km/h 7.6 km/h 47 % 0 mm
21:35 -15.1 °C -19.3 °C 34222.3 hPa NNE 12.9 km/h 15.6 km/h 58 % 0 mm
21:37 -13.4 °C -19.2 °C 34164.7 hPa WSW 6 km/h 6 km/h 48 % 0 mm
21:42 -13.4 °C -19.2 °C 34164.7 hPa NW 6 km/h 6 km/h 48 % 0 mm
21:45 -15.2 °C -19.4 °C 34222.3 hPa NE 5.1 km/h 12.9 km/h 58 % 0 mm
21:47 -13.4 °C -19.2 °C 34164.7 hPa ENE 9 km/h 9 km/h 48 % 0 mm
21:52 -13.5 °C -19.1 °C 34164.7 hPa ENE 3.7 km/h 3.7 km/h 49 % 0 mm
21:57 -13.5 °C -19.1 °C 34198.6 hPa WNW 6 km/h   49 % 0 mm
22:02 -13.4 °C -19.1 °C 34198.6 hPa NW 9 km/h 9 km/h 49 % 0 mm
22:05 -15.4 °C -19.4 °C 34256.2 hPa WNW 2.6 km/h 7.7 km/h 59 % 0 mm
22:07 -13.4 °C -19.1 °C 34198.6 hPa WSW 3.7 km/h 3.7 km/h 49 % 0 mm
22:12 -13.6 °C -19.2 °C 34164.7 hPa WSW 9 km/h 9 km/h 49 % 0 mm
22:17 -13.7 °C -19.2 °C 34164.7 hPa WSW 9 km/h 9 km/h 49 % 0 mm
22:27 -13.7 °C -19.1 °C 34198.6 hPa West 11.9 km/h 11.9 km/h 50 % 0 mm
22:37 -13.7 °C -19.1 °C 34198.6 hPa WSW 16.1 km/h 16.1 km/h 50 % 0 mm
22:42 -13.6 °C -18.9 °C 34164.7 hPa WSW 15 km/h 15 km/h 51 % 0 mm
22:45 -15.6 °C -19.3 °C 34256.2 hPa Calm   7.7 km/h 61 % 0 mm
22:47 -13.6 °C -18.9 °C 34164.7 hPa NE 11.9 km/h 11.9 km/h 51 % 0 mm
22:52 -13.6 °C -18.9 °C 34164.7 hPa West 11.9 km/h 11.9 km/h 51 % 0 mm
22:55 -15.7 °C -19.6 °C 34256.2 hPa West 2.6 km/h 5.1 km/h 60 % 0 mm
23:02 -13.7 °C -19 °C 34164.7 hPa ENE 6.8 km/h 6.8 km/h 51 % 0 mm
23:05 -15.7 °C -19.5 °C 34256.2 hPa WNW 2.6 km/h 5.1 km/h 61 % 0 mm
23:07 -13.8 °C -19.1 °C 34164.7 hPa NNE 9 km/h 9 km/h 51 % 0 mm
23:12 -13.8 °C -19.1 °C 34164.7 hPa East 6 km/h 6.3 km/h 51 % 0 mm
23:13 -13.8 °C -18.9 °C 34164.7 hPa East 6 km/h 6 km/h 52 % 0 mm
23:18 -13.8 °C -19.1 °C 34164.7 hPa West 6 km/h 6 km/h 51 % 0 mm
23:23 -13.9 °C -19.2 °C 34164.7 hPa WNW 6 km/h 6 km/h 51 % 0 mm
23:25 -15.7 °C -19.5 °C 34256.2 hPa NNE 2.6 km/h 7.7 km/h 61 % 0 mm
23:28 -13.9 °C -19.2 °C 34198.6 hPa WSW 9 km/h 9.3 km/h 51 % 0 mm
23:33 -13.9 °C -19 °C 34198.6 hPa WSW 11.9 km/h 11.9 km/h 52 % 0 mm
23:34 -13.9 °C -19 °C 34198.6 hPa WSW 11.9 km/h 11.9 km/h 52 % 0 mm
23:35 -15.7 °C -19.3 °C 34256.2 hPa NNE 2.6 km/h 5.1 km/h 62 % 0 mm
23:38 -13.9 °C -19 °C 34198.6 hPa WSW 15 km/h 15 km/h 52 % 0 mm
23:43 -13.9 °C -19 °C 34198.6 hPa West 11.9 km/h 11.9 km/h 52 % 0 mm
23:45 -15.8 °C -19.5 °C 34256.2 hPa WNW 2.6 km/h 5.1 km/h 62 % 0 mm
23:48 -13.9 °C -19 °C 34198.6 hPa WSW 17.9 km/h 17.9 km/h 52 % 0 mm
23:49 -13.9 °C -19.1 °C 34198.6 hPa West 15 km/h 15 km/h 52 % 0 mm
23:54 -13.9 °C -18.9 °C 34198.6 hPa West 17.9 km/h 17.9 km/h 53 % 0 mm
23:55 -16 °C -19.7 °C 34256.2 hPa Calm   5.1 km/h 62 % 0 mm
23:59 -14 °C -18.9 °C 34198.6 hPa WSW 11.9 km/h 11.9 km/h 53 % 0 mm
Meteo Sesrovires
Elogis d' Weather Underground - 1.5 mb

Guio original per  Jim McMurry - jmcmurry@mwt.net Adaptat per a la plantilla per  Wim van der Kuil - Leuven-Template.eu

Trobareu la nostra informacio del temps tambe a:

Weather Underground

AWEKAS